SBCR

Corumbá International Airport

Airport
ICAO code
SBCR
IATA Code
CMG
Summary
ICAO Region
CARSAM
ICAO Territory
Location

Corumbá, Mato Grosso do Sul

Serving
Corumbá
Elevation
461 ft
Coordinates
19° 0' 43" S , 57° 40' 17" W
KCC
Metar
SBCR 241500Z 21009KT 180V260 9999 BKN011 OVC020 18/15 Q1020

Corumbá International Airport is the airport serving Corumbá, Brazil.

Climatology

Tropical savanna climate (Köppen climate classification Aw)

Runways

Designator Length Width Surface Rops
9/27 1660 30 ASP Yes/Yes

Airport map

Aerial View

SKYbrary Partners:

Safety knowledge contributed by: